x

North Nomad (46184) Wave Buoy

7:00am - Fri 22nd Aug 2014 All times are AKDT. -8 hours from GMT.

  • Sig Wave height 3.0ft
  • Peak Period 15s
  • Wind
    4mph, 7mph gusts
  • Sea Temp 59°f
  • Air Temp 58°f
  • Sea Pressure 1026.2mb
  • North Nomad
  • North Nomad

More Historic Weather Station data

Upgrade to MSW Pro to gain access to the past 30 days of data for over 8000 Wavebouys and Weather Stations around the globe.

Join Pro

Comparision Forecast

View Surf forecast
   
Fri 08/22 7:00am 3ft 15s 4 7 mph 1026.2mb 59f 58f
6:00am 3ft 6s 7
mph
1026.2mb 59f 59f
5:00am 3ft 6s 4 7 mph 1026.3mb 59f 59f
4:00am 3ft 14s 7 9 mph 1025.9mb 59f 59f
3:00am 3ft 14s 7 9 mph 1026.7mb 59f 59f
2:00am 3.5ft 6s 7 9 mph 1026.8mb 59f 59f
1:00am 3.5ft 14s 9 11 mph 1026.3mb 59f 59f
12:00am 3.5ft 14s 9 11 mph 1026.2mb 59f 59f
Thu 08/21 11:00pm 4ft 6s 9 11 mph 1025.6mb 59f 59f
10:00pm 4ft 6s 11
mph
1025.6mb 59f 59f
9:00pm 4ft 15s 13
mph
1025.7mb 59f 59f
8:00pm 4ft 15s 11 13 mph 1025.8mb 59f 59f
7:00pm 4ft 15s 13 16 mph 1025.6mb 59f 59f
6:00pm 4ft 6s 13 16 mph 1025.1mb 59f 60f
5:00pm 3.5ft 5s 13 16 mph 1024.9mb 59f 60f
4:00pm 3.5ft 5s 13 16 mph 1024.7mb 59f 60f
3:00pm 3.5ft 5s 13 16 mph 1025mb 59f 60f
2:00pm 3.5ft 8s 13 18 mph 1024.7mb 59f 60f
1:00pm 4ft 8s 13 16 mph 1024.1mb 59f 60f
12:00pm 4ft  -  13 16 mph 1023.8mb 59f 59f
10:00am 4.5ft  -  16 18 mph 1022.6mb 59f 59f
9:00am 4.5ft  -  16 18 mph 1021.9mb 59f 59f
8:00am 4.5ft  -  18 20 mph 1021.8mb 59f 59f
7:00am 4.5ft 8s 16 20 mph 1021.3mb 59f 59f
6:00am 4.5ft 9s 16 18 mph 1021mb 59f 59f
5:00am 4.5ft 8s 16 18 mph 1020.5mb 59f 59f
4:00am 4.5ft 8s 13 18 mph 1020.1mb 59f 59f
3:00am 3.5ft 8s 13 16 mph 1019.6mb 59f 59f
2:00am 3.5ft 6s 13 16 mph 1019.1mb 59f 59f
1:00am 4ft 6s 13 16 mph 1018.8mb 59f 59f
12:00am 4ft 14s 13 18 mph 1018.2mb 59f 59f
Wed 08/20 11:00pm 4ft 6s 16 18 mph 1017.6mb 59f 59f
10:00pm 4.5ft 6s 16 18 mph 1017.1mb 59f 59f
9:00pm 4.5ft 6s 16 18 mph 1016.5mb 59f 59f
8:00pm 4.5ft 14s 16 20 mph 1015.9mb 59f 59f
7:00pm 4.5ft 5s 16 18 mph 1015.6mb 59f 59f
6:00pm 4.5ft 6s 13 16 mph 1015.4mb 59f 59f
5:00pm 4ft 6s 16 20 mph 1014.9mb 59f 59f
4:00pm 4ft 6s 13
mph
1015mb 59f 58f
3:00pm 4ft 6s 13 18 mph 1015.2mb 59f 58f
2:00pm 4ft 5s 11 13 mph 1015.1mb 59f 57f
1:00pm 4ft 5s 13 16 mph 1015mb 59f 57f
12:00pm 4ft 4s 13 18 mph 1014.6mb 59f 57f
11:00am 4ft  -  16 18 mph 1014.5mb 59f 58f
10:00am 4ft 15s 18 20 mph 1014.3mb 59f 58f
9:00am 4ft 16s 16 20 mph 1014.3mb 59f 58f
8:00am 3.5ft 15s 18 20 mph 1014.3mb 59f 58f
7:00am 3.5ft 16s 18 20 mph 1014.3mb 59f 58f
6:00am 3.5ft 15s 18 20 mph 1014.4mb 59f 58f
5:00am 3.5ft 15s 16 20 mph 1014.6mb 59f 58f
4:00am 3ft 15s 11 13 mph 1015.1mb 59f 59f
3:00am 3.5ft 16s 11 13 mph 1015.5mb 59f 59f
2:00am 3.5ft 15s 9 11 mph 1015.8mb 59f 59f
1:00am 3.5ft 8s 9 11 mph 1016mb 59f 59f
12:00am 3.5ft 8s 7 9 mph 1016.3mb 60f 59f
Tue 08/19 11:00pm 3.5ft 9s 9 11 mph 1016.4mb 60f 59f
10:00pm 4ft 8s 9
mph
1016.3mb 60f 59f
9:00pm 3.5ft 8s 4 7 mph 1016.9mb 60f 59f
8:00pm 4ft 8s 7 9 mph 1016.8mb 60f 59f
7:00pm 4ft 8s 2 4 mph 1017.5mb 60f 59f
6:00pm 3.5ft 9s 2 4 mph 1017.8mb 60f 60f
5:00pm 4ft 9s 2
mph
1018.1mb 60f 60f
4:00pm 4ft 9s 2
mph
1018.9mb 60f 60f
3:00pm 4.5ft 9s  -  2 mph 1019.2mb 60f 60f
2:00pm 4.5ft 9s 2
mph
1019.1mb 60f 60f
1:00pm 5ft 8s 2 4 mph 1019.2mb 60f 59f
12:00pm 4.5ft 8s 2
mph
1019.2mb 60f 60f
11:00am 4.5ft 8s 2 4 mph 1019.1mb 59f 59f
10:00am 4.5ft 9s 4 7 mph 1019.2mb 59f 58f
9:00am 4.5ft 9s 7 9 mph 1019.3mb 59f 58f
8:00am 5ft 9s 9
mph
1019.5mb 59f 58f
7:00am 4.5ft 9s 2 4 mph 1019.5mb 59f 58f
6:00am 4.5ft 8s 4
mph
1019.8mb 59f 58f
5:00am 5ft 9s 9
mph
1019.9mb 59f 58f
4:00am 4.5ft 9s 7 9 mph 1019.9mb 59f 59f
3:00am 5ft 9s 9 11 mph 1019.8mb 59f 59f
2:00am 5ft 8s 7 9 mph 1020.1mb 59f 59f
1:00am 5ft 10s 7 9 mph 1020.1mb 59f 59f
12:00am 5ft 10s 9
mph
1019.9mb 59f 59f
Mon 08/18 11:00pm 5.5ft 9s 9 13 mph 1020mb 59f 59f
10:00pm 6ft 10s 9 11 mph 1020mb 59f 59f
9:00pm 5.5ft 9s 9 16 mph 1020.4mb 59f 59f
8:00pm 5ft 10s 11 13 mph 1020.2mb 59f 59f
7:00pm 5.5ft 9s 11 16 mph 1019.9mb 59f 59f
6:00pm 6ft 9s 11 13 mph 1020.2mb 59f 59f
5:00pm 6ft 10s 11 13 mph 1020.2mb 59f 59f